Time;durP1;ratioP1;P1;durP2;ratioP2;P2;SDS_P1;SDS_P2;PMS_P1;PMS_P2;Temp;Humidity;BMP_temperature;BMP_pressure;BME280_temperature;BME280_humidity;BME280_pressure;Samples;Min_cycle;Max_cycle;Signal;HPM_P1;HPM_P2
2023/01/18 00:01:08;;;;;;;;;27.75;17.25;;;;;3.97;63.83;98908.50;6275375;22;46102;-45
2023/01/18 00:03:35;;;;;;;;;33.00;24.75;;;;;3.94;63.71;98914.03;6274902;22;45323;-46
2023/01/18 00:06:02;;;;;;;;;27.25;23.25;;;;;3.91;65.05;98915.16;6274987;22;45412;-47
2023/01/18 00:08:28;;;;;;;;;30.25;22.75;;;;;3.86;64.39;98912.16;6275608;22;45270;-44
2023/01/18 00:11:00;;;;;;;;;23.25;17.75;;;;;3.81;63.31;98914.41;6274501;22;47068;-46
2023/01/18 00:13:25;;;;;;;;;28.50;23.25;;;;;3.73;64.16;98919.56;6275164;22;45431;-45
2023/01/18 00:15:51;;;;;;;;;30.50;22.75;;;;;3.68;64.42;98920.00;6275294;22;45325;-45
2023/01/18 00:18:16;;;;;;;;;29.50;21.50;;;;;3.69;64.13;98926.94;6275106;22;45253;-45
2023/01/18 00:20:41;;;;;;;;;33.00;23.00;;;;;3.66;64.82;98935.09;6273447;22;45395;-43
2023/01/18 00:23:07;;;;;;;;;40.50;24.75;;;;;3.61;64.27;98939.97;6274622;22;45252;-46
2023/01/18 00:25:32;;;;;;;;;28.25;22.00;;;;;3.57;64.58;98938.63;6275227;22;45322;-44
2023/01/18 00:27:57;;;;;;;;;29.00;20.75;;;;;3.54;65.04;98940.69;6275225;22;45342;-44
2023/01/18 00:30:26;;;;;;;;;24.00;18.00;;;;;3.44;64.84;98935.50;6274498;22;46119;-45
2023/01/18 00:32:57;;;;;;;;;25.50;22.50;;;;;3.44;64.85;98946.84;6274663;22;45190;-48
2023/01/18 00:35:23;;;;;;;;;24.75;20.25;;;;;3.42;64.73;98942.72;6274498;22;45313;-47
2023/01/18 00:37:50;;;;;;;;;26.00;18.25;;;;;3.39;64.92;98948.25;6275097;22;45176;-46
2023/01/18 00:40:16;;;;;;;;;32.50;22.50;;;;;3.36;65.57;98953.78;6274207;22;47208;-45
2023/01/18 00:45:25;;;;;;;;;23.00;18.25;;;;;3.24;65.02;98943.47;6275175;22;45159;-45
2023/01/18 00:47:51;;;;;;;;;21.25;14.75;;;;;3.34;64.55;98953.13;6275026;22;45126;-45
2023/01/18 00:50:18;;;;;;;;;19.25;17.00;;;;;3.32;65.63;98958.50;6274375;22;46825;-47
2023/01/18 00:52:45;;;;;;;;;22.00;12.25;;;;;3.30;64.92;98957.00;6274903;22;45457;-44
2023/01/18 00:55:11;;;;;;;;;21.00;17.00;;;;;3.28;65.01;98965.03;6275010;22;45327;-43
2023/01/18 00:57:38;;;;;;;;;25.00;14.75;;;;;3.27;65.56;98973.06;6275243;22;45352;-46
2023/01/18 01:00:04;;;;;;;;;17.50;15.75;;;;;3.25;65.19;98968.78;6274283;22;47133;-45
2023/01/18 01:02:30;;;;;;;;;27.25;18.50;;;;;3.10;66.22;98954.44;6274533;22;45278;-45
2023/01/18 01:07:39;;;;;;;;;19.50;15.25;;;;;3.21;65.10;98969.22;6275547;22;45248;-46
2023/01/18 01:10:08;;;;;;;;;18.25;15.50;;;;;3.22;65.63;98984.81;6274062;22;51763;-45
2023/01/18 01:26:16;;;;;;;;;18.00;14.75;;;;;3.13;65.37;99001.44;6274803;22;45322;-45
2023/01/18 01:28:50;;;;;;;;;23.25;18.00;;;;;3.10;66.15;99009.59;6274857;22;45313;-45
2023/01/18 01:31:17;;;;;;;;;24.00;17.00;;;;;3.11;65.45;99008.63;6274063;22;47318;-47
2023/01/18 01:33:47;;;;;;;;;23.00;15.50;;;;;2.99;66.20;99007.97;6274160;22;45166;-44
2023/01/18 01:36:15;;;;;;;;;19.50;19.00;;;;;3.11;65.81;99019.13;6274785;22;45588;-46
2023/01/18 01:38:41;;;;;;;;;22.75;18.75;;;;;3.12;66.22;99019.97;6273674;22;45103;-47
2023/01/18 01:41:25;;;;;;;;;25.25;15.25;;;;;3.11;66.35;99024.38;6274013;22;47037;-46
2023/01/18 01:43:53;;;;;;;;;14.00;14.00;;;;;3.07;66.14;99014.31;6274158;22;45310;-47
2023/01/18 01:46:24;;;;;;;;;14.50;14.00;;;;;3.11;66.51;99028.81;6276186;22;45309;-47
2023/01/18 01:48:57;;;;;;;;;17.00;14.50;;;;;3.10;65.94;99029.78;6276210;22;45338;-47
2023/01/18 01:51:22;;;;;;;;;13.00;11.00;;;;;3.15;65.65;99040.69;6275149;22;46159;-46
2023/01/18 01:53:49;;;;;;;;;21.25;16.25;;;;;3.12;65.78;99041.84;6275373;22;45246;-46
2023/01/18 01:56:17;;;;;;;;;19.50;17.25;;;;;3.15;66.55;99044.16;6275982;22;45302;-47
2023/01/18 01:58:45;;;;;;;;;23.25;19.00;;;;;3.15;65.55;99049.41;6276504;22;45234;-46
2023/01/18 02:01:11;;;;;;;;;19.75;16.50;;;;;3.14;65.51;99049.56;6275767;22;45395;-46
2023/01/18 02:03:39;;;;;;;;;22.00;14.25;;;;;3.13;66.29;99045.28;6275381;22;45398;-45
2023/01/18 02:06:18;;;;;;;;;19.50;15.50;;;;;3.06;65.52;99049.44;6275742;22;45271;-45
2023/01/18 02:08:46;;;;;;;;;17.25;14.50;;;;;3.13;65.58;99055.78;6276360;22;45182;-44
2023/01/18 02:11:11;;;;;;;;;21.50;14.00;;;;;3.12;65.85;99056.75;6275205;22;46185;-45
2023/01/18 02:13:36;;;;;;;;;19.75;16.25;;;;;3.11;65.47;99060.34;6275388;22;45349;-43
2023/01/18 02:16:39;;;;;;;;;20.25;17.00;;;;;3.05;65.91;99055.66;6275886;22;45228;-48
2023/01/18 02:19:23;;;;;;;;;14.25;13.75;;;;;3.09;65.68;99070.19;6275961;22;45301;-44
2023/01/18 02:22:13;;;;;;;;;22.75;16.25;;;;;3.07;65.54;99065.03;6275676;22;46109;-44
2023/01/18 02:25:03;;;;;;;;;19.25;13.00;;;;;3.09;66.34;99078.88;6275907;22;45367;-45
2023/01/18 02:28:14;;;;;;;;;13.00;10.00;;;;;3.09;66.28;99084.16;6276073;22;45309;-44
2023/01/18 02:31:06;;;;;;;;;20.00;15.25;;;;;3.09;65.60;99080.69;6276093;22;45262;-44
2023/01/18 02:33:40;;;;;;;;;18.25;13.00;;;;;3.07;66.10;99077.34;6274110;22;45407;-46
2023/01/18 02:36:05;;;;;;;;;17.00;16.50;;;;;3.08;65.60;99079.03;6274908;22;45407;-45
2023/01/18 02:39:02;;;;;;;;;12.50;12.50;;;;;3.07;66.51;99078.19;6274105;22;45352;-44
2023/01/18 02:47:17;;;;;;;;;24.50;13.50;;;;;3.06;66.01;99076.53;6275621;22;45333;-44
2023/01/18 02:49:42;;;;;;;;;9.75;9.75;;;;;3.05;65.80;99088.00;6275221;22;45274;-43
2023/01/18 02:52:37;;;;;;;;;14.75;11.25;;;;;3.03;66.41;99084.69;6275922;22;45307;-46
2023/01/18 02:55:03;;;;;;;;;19.00;12.50;;;;;3.03;66.55;99091.75;6275015;22;46237;-46
2023/01/18 02:57:29;;;;;;;;;12.00;2.25;;;;;2.99;66.31;99094.66;6275766;22;45389;-44
2023/01/18 02:59:58;;;;;;;;;11.00;9.25;;;;;2.94;65.76;99088.97;6274963;22;45213;-44
2023/01/18 03:02:25;;;;;;;;;19.25;12.75;;;;;2.91;65.52;99091.91;6275814;22;45436;-47
2023/01/18 03:04:55;;;;;;;;;11.25;8.25;;;;;2.95;65.48;99100.31;6247883;22;45980;-45
2023/01/18 03:07:30;;;;;;;;;11.75;9.75;;;;;2.91;66.29;99106.84;6275138;22;45270;-47
2023/01/18 03:09:59;;;;;;;;;9.50;9.50;;;;;2.89;66.39;99116.63;6275329;22;45170;-45
2023/01/18 03:12:46;;;;;;;;;12.25;8.75;;;;;2.86;66.23;99109.84;6275458;22;45321;-48
2023/01/18 03:15:45;;;;;;;;;12.50;10.75;;;;;2.85;66.17;99117.88;6275072;22;46333;-45
2023/01/18 03:18:24;;;;;;;;;11.00;8.50;;;;;2.82;66.43;99115.50;6247698;22;45450;-44
2023/01/18 03:20:54;;;;;;;;;10.50;9.75;;;;;2.83;66.44;99125.91;6274387;22;45310;-47
2023/01/18 03:23:38;;;;;;;;;16.25;11.75;;;;;2.80;66.54;99123.53;6275661;22;45420;-44
2023/01/18 03:26:18;;;;;;;;;13.50;9.75;;;;;2.78;65.71;99127.25;6274846;22;46108;-45
2023/01/18 03:34:48;;;;;;;;;16.00;13.00;;;;;2.75;65.88;99121.31;6275927;22;45246;-45
2023/01/18 03:37:20;;;;;;;;;9.00;8.50;;;;;2.75;66.02;99134.44;6274661;22;47212;-46
2023/01/18 03:39:52;;;;;;;;;8.25;8.25;;;;;2.76;65.60;99127.41;6274499;22;45380;-46
2023/01/18 03:42:24;;;;;;;;;14.00;8.00;;;;;2.78;65.32;99127.25;6275971;22;45270;-44
2023/01/18 03:44:51;;;;;;;;;8.75;7.25;;;;;2.82;65.46;99137.34;6275575;22;45373;-45
2023/01/18 03:47:17;;;;;;;;;16.50;9.50;;;;;2.86;66.18;99138.72;6275521;22;45293;-44
2023/01/18 03:49:42;;;;;;;;;13.00;9.25;;;;;2.77;66.18;99120.34;6275398;22;45340;-44
2023/01/18 03:52:19;;;;;;;;;18.25;8.00;;;;;2.92;65.68;99148.72;6275143;22;45809;-46
2023/01/18 03:54:54;;;;;;;;;15.50;14.75;;;;;2.96;66.12;99149.25;6275735;22;45323;-44
2023/01/18 03:57:28;;;;;;;;;13.00;12.50;;;;;3.00;65.25;99163.78;6274141;22;46529;-44
2023/01/18 03:59:54;;;;;;;;;16.50;12.25;;;;;3.03;65.55;99168.75;6274902;22;45577;-44
2023/01/18 04:02:20;;;;;;;;;13.75;13.00;;;;;2.92;65.31;99155.75;6275139;22;45282;-44
2023/01/18 04:04:45;;;;;;;;;18.25;12.00;;;;;3.05;65.77;99174.72;6275389;22;45220;-45
2023/01/18 04:07:11;;;;;;;;;13.00;12.00;;;;;2.97;65.43;99164.06;6274238;22;46289;-44
2023/01/18 04:09:36;;;;;;;;;17.25;15.75;;;;;3.06;65.81;99189.50;6273864;22;45310;-43
2023/01/18 04:12:01;;;;;;;;;20.00;12.25;;;;;3.06;65.66;99181.63;6274246;22;45339;-46
2023/01/18 04:14:27;;;;;;;;;17.75;11.75;;;;;3.09;66.25;99194.47;6275283;22;45318;-44
2023/01/18 04:16:52;;;;;;;;;16.75;16.25;;;;;3.08;66.56;99194.63;6274528;22;46269;-43
2023/01/18 04:19:17;;;;;;;;;14.50;14.50;;;;;3.11;66.42;99203.03;6275087;22;45349;-43
2023/01/18 04:21:43;;;;;;;;;20.75;14.50;;;;;3.10;66.61;99211.91;6274748;22;45252;-45
2023/01/18 04:24:10;;;;;;;;;24.75;14.75;;;;;3.10;66.16;99208.44;6247747;22;45253;-44
2023/01/18 04:26:35;;;;;;;;;13.00;13.00;;;;;3.10;66.47;99213.69;6274703;22;47017;-44
2023/01/18 04:29:01;;;;;;;;;25.50;18.50;;;;;3.10;66.62;99211.06;6274789;22;45163;-43
2023/01/18 04:31:26;;;;;;;;;25.00;19.50;;;;;2.99;66.82;99198.88;6275219;22;45357;-45
2023/01/18 04:33:52;;;;;;;;;22.00;17.00;;;;;3.03;66.14;99218.66;6275066;22;45431;-44
2023/01/18 04:36:19;;;;;;;;;19.75;16.00;;;;;3.05;66.36;99224.63;6275008;22;46080;-45
2023/01/18 04:38:44;;;;;;;;;18.00;13.00;;;;;3.02;66.27;99224.88;6274155;22;45548;-45
2023/01/18 04:41:10;;;;;;;;;16.00;15.75;;;;;2.98;65.09;99234.81;6274931;22;45324;-44
2023/01/18 04:43:35;;;;;;;;;17.50;16.00;;;;;2.96;65.47;99238.56;6275238;22;45487;-45
2023/01/18 04:46:01;;;;;;;;;17.25;13.75;;;;;2.90;65.71;99232.03;6274833;22;45306;-43
2023/01/18 04:48:26;;;;;;;;;18.25;10.00;;;;;2.91;66.44;99251.28;6274593;22;45322;-44
2023/01/18 04:50:51;;;;;;;;;14.75;13.00;;;;;2.85;65.91;99238.69;6274584;22;45501;-44
2023/01/18 04:53:17;;;;;;;;;16.75;14.50;;;;;2.89;65.81;99243.53;6275590;22;45210;-44
2023/01/18 04:55:43;;;;;;;;;15.75;14.00;;;;;2.87;66.00;99247.25;6274494;22;46453;-45
2023/01/18 04:58:09;;;;;;;;;17.25;15.00;;;;;2.88;65.35;99246.28;6273910;22;45309;-45
2023/01/18 05:00:38;;;;;;;;;18.00;15.75;;;;;2.83;65.69;99245.88;6275325;22;45202;-44
2023/01/18 05:03:07;;;;;;;;;18.75;17.50;;;;;2.83;65.85;99257.19;6274907;22;45449;-45
2023/01/18 05:05:33;;;;;;;;;17.00;15.00;;;;;2.80;65.88;99257.47;6274337;22;47216;-46
2023/01/18 05:07:58;;;;;;;;;18.50;12.75;;;;;2.73;66.10;99253.69;6274215;22;45435;-44
2023/01/18 05:10:23;;;;;;;;;18.25;16.00;;;;;2.73;66.14;99256.31;6273535;22;45245;-44
2023/01/18 05:12:49;;;;;;;;;17.50;15.00;;;;;2.73;66.14;99262.41;6275240;22;45289;-44
2023/01/18 05:15:14;;;;;;;;;19.25;14.50;;;;;2.70;66.47;99265.31;6274547;22;49180;-43
2023/01/18 05:17:40;;;;;;;;;22.00;13.25;;;;;2.68;65.72;99266.41;6275441;22;45167;-44
2023/01/18 05:20:07;;;;;;;;;15.25;14.25;;;;;2.69;66.44;99275.94;6275963;22;45147;-43
2023/01/18 05:22:33;;;;;;;;;15.50;12.25;;;;;2.68;66.90;99276.91;6275837;22;45269;-44
2023/01/18 05:24:59;;;;;;;;;24.25;13.00;;;;;2.67;66.79;99278.69;6275524;22;46078;-43
2023/01/18 05:27:24;;;;;;;;;17.00;12.50;;;;;2.63;66.05;99276.47;6275448;22;45278;-45
2023/01/18 05:29:49;;;;;;;;;27.50;13.00;;;;;2.67;66.50;99286.56;6276237;22;45229;-45
2023/01/18 05:32:15;;;;;;;;;17.50;12.75;;;;;2.68;66.41;99285.59;6275941;22;45234;-45
2023/01/18 05:34:41;;;;;;;;;18.00;15.00;;;;;2.71;66.58;99284.53;6275914;22;45328;-44
2023/01/18 05:37:06;;;;;;;;;18.00;14.50;;;;;2.74;66.53;99289.53;6275287;22;45290;-44
2023/01/18 05:39:32;;;;;;;;;13.00;8.00;;;;;2.74;66.86;99285.09;6275810;22;45241;-45
2023/01/18 05:41:57;;;;;;;;;13.25;10.50;;;;;2.79;66.72;99289.13;6275925;22;45442;-44
2023/01/18 05:44:23;;;;;;;;;13.50;11.50;;;;;2.72;66.70;99289.63;6274969;22;45308;-44
2023/01/18 05:46:48;;;;;;;;;20.75;15.50;;;;;2.73;66.49;99290.47;6275534;22;45381;-45
2023/01/18 05:49:13;;;;;;;;;11.25;8.75;;;;;2.83;66.16;99304.47;6276190;22;45234;-45
2023/01/18 05:51:39;;;;;;;;;20.00;14.25;;;;;2.83;66.08;99312.34;6275670;22;45396;-47
2023/01/18 05:54:04;;;;;;;;;18.25;12.00;;;;;2.86;66.50;99316.50;6274989;22;47135;-47
2023/01/18 05:56:30;;;;;;;;;15.00;12.25;;;;;2.84;66.31;99319.25;6275555;22;45141;-46
2023/01/18 05:58:55;;;;;;;;;20.00;14.00;;;;;2.84;65.52;99326.31;6275542;22;45193;-43
2023/01/18 06:01:20;;;;;;;;;17.00;15.75;;;;;2.83;65.84;99322.03;6276104;22;45339;-45
2023/01/18 06:03:46;;;;;;;;;14.00;14.00;;;;;2.78;65.88;99330.28;6275816;22;46189;-45
2023/01/18 06:06:11;;;;;;;;;18.75;14.50;;;;;2.76;66.07;99324.34;6275526;22;47022;-45
2023/01/18 06:08:36;;;;;;;;;15.00;10.50;;;;;2.79;66.12;99325.88;6275218;22;45353;-44
2023/01/18 06:11:02;;;;;;;;;18.00;14.25;;;;;2.75;65.28;99326.13;6276131;22;45376;-44
2023/01/18 06:13:29;;;;;;;;;19.50;15.25;;;;;2.64;65.38;99309.63;6275282;22;46128;-45
2023/01/18 06:15:56;;;;;;;;;17.25;13.00;;;;;2.77;65.61;99343.53;6275384;22;45352;-46
2023/01/18 06:18:24;;;;;;;;;19.50;16.00;;;;;2.76;66.49;99350.59;6275744;22;45273;-47
2023/01/18 06:20:52;;;;;;;;;21.00;18.25;;;;;2.72;66.08;99349.19;6275756;22;45355;-45
2023/01/18 06:23:17;;;;;;;;;19.75;12.50;;;;;2.70;66.06;99354.59;6274815;22;46402;-44
2023/01/18 06:25:43;;;;;;;;;16.00;13.25;;;;;2.68;66.49;99353.03;6275465;22;45153;-44
2023/01/18 06:28:08;;;;;;;;;19.00;16.50;;;;;2.61;66.30;99350.13;6275046;22;46820;-46
2023/01/18 06:30:33;;;;;;;;;16.00;12.50;;;;;2.70;66.35;99372.13;6276240;22;45247;-47
2023/01/18 06:33:03;;;;;;;;;12.25;10.00;;;;;2.68;66.14;99376.69;6275708;22;46638;-44
2023/01/18 06:35:29;;;;;;;;;22.00;17.25;;;;;2.63;66.69;99374.44;6274290;22;45320;-45
2023/01/18 06:37:55;;;;;;;;;19.25;16.25;;;;;2.67;67.24;99385.53;6275895;22;45271;-45
2023/01/18 06:40:20;;;;;;;;;14.00;11.25;;;;;2.65;66.78;99383.00;6275150;22;45211;-46
2023/01/18 06:42:47;;;;;;;;;21.00;12.75;;;;;2.61;66.56;99394.75;6275546;22;46078;-44
2023/01/18 06:45:12;;;;;;;;;15.00;9.50;;;;;2.61;67.08;99401.78;6275846;22;45416;-44
2023/01/18 06:47:38;;;;;;;;;16.50;11.50;;;;;2.60;66.89;99405.38;6275613;22;45143;-43
2023/01/18 06:50:04;;;;;;;;;22.50;17.50;;;;;2.58;66.61;99405.50;6276116;22;45298;-46
2023/01/18 06:52:29;;;;;;;;;22.00;15.75;;;;;2.55;66.79;99418.88;6275014;22;46033;-45
2023/01/18 06:54:54;;;;;;;;;12.25;12.25;;;;;2.53;67.33;99418.19;6274861;22;45629;-47
2023/01/18 06:57:20;;;;;;;;;16.50;14.50;;;;;2.53;66.87;99419.94;6275879;22;45320;-44
2023/01/18 06:59:45;;;;;;;;;15.75;14.25;;;;;2.53;67.14;99419.94;6275498;22;45362;-45
2023/01/18 07:02:15;;;;;;;;;15.50;14.25;;;;;2.41;67.05;99406.09;6275142;22;46840;-44
2023/01/18 07:04:43;;;;;;;;;20.00;15.25;;;;;2.51;66.89;99427.97;6275198;22;45227;-45
2023/01/18 07:07:08;;;;;;;;;19.25;16.25;;;;;2.49;66.89;99435.16;6275143;22;45176;-46
2023/01/18 07:09:33;;;;;;;;;19.25;13.25;;;;;2.50;66.47;99442.88;6275392;22;45184;-48
2023/01/18 07:11:59;;;;;;;;;21.50;17.00;;;;;2.47;66.74;99437.06;6274761;22;47014;-46
2023/01/18 07:14:24;;;;;;;;;9.75;9.75;;;;;2.48;67.02;99442.16;6273783;22;45271;-45
2023/01/18 07:16:49;;;;;;;;;21.00;17.50;;;;;2.47;67.36;99445.75;6275583;22;45365;-44
2023/01/18 07:19:15;;;;;;;;;28.50;19.50;;;;;2.46;66.92;99449.34;6274981;22;45384;-43
2023/01/18 07:21:40;;;;;;;;;20.75;15.00;;;;;2.35;66.37;99435.44;6275420;22;46003;-44
2023/01/18 07:24:06;;;;;;;;;23.50;16.00;;;;;2.44;67.17;99466.16;6274840;22;45474;-47
2023/01/18 07:26:31;;;;;;;;;17.00;14.00;;;;;2.44;66.79;99466.16;6275299;22;45377;-44
2023/01/18 07:28:56;;;;;;;;;17.75;17.00;;;;;2.43;66.91;99467.13;6275910;22;45284;-44
2023/01/18 07:31:23;;;;;;;;;17.75;14.00;;;;;2.43;66.53;99469.75;6275248;22;45897;-45
2023/01/18 07:33:49;;;;;;;;;24.00;20.25;;;;;2.44;66.73;99476.66;6274188;22;45274;-45
2023/01/18 07:36:14;;;;;;;;;27.75;22.00;;;;;2.44;67.03;99487.16;6275061;22;45797;-44
2023/01/18 07:38:40;;;;;;;;;19.75;15.00;;;;;2.44;66.50;99484.53;6274528;22;45462;-46
2023/01/18 07:41:13;;;;;;;;;22.50;19.50;;;;;2.40;66.27;99475.25;6274339;22;46862;-48
2023/01/18 07:43:39;;;;;;;;;19.50;15.00;;;;;2.44;66.81;99488.03;6275410;22;45259;-46
2023/01/18 07:46:06;;;;;;;;;23.75;18.50;;;;;2.45;66.17;99494.09;6275201;22;45241;-47
2023/01/18 07:48:31;;;;;;;;;20.75;16.00;;;;;2.43;66.67;99490.75;6275326;22;45166;-44
2023/01/18 07:50:59;;;;;;;;;22.75;20.50;;;;;2.47;66.30;99502.69;6274648;22;46114;-46
2023/01/18 07:53:26;;;;;;;;;19.75;14.75;;;;;2.49;66.81;99517.34;6274766;22;45475;-46
2023/01/18 07:55:51;;;;;;;;;19.00;16.00;;;;;2.53;66.68;99510.06;6275552;22;45255;-48
2023/01/18 07:58:18;;;;;;;;;23.00;18.00;;;;;2.57;66.84;99521.97;6275799;22;45278;-47
2023/01/18 08:00:44;;;;;;;;;20.25;18.00;;;;;2.62;67.39;99521.59;6275492;22;45337;-45
2023/01/18 08:03:13;;;;;;;;;48.50;36.75;;;;;2.62;67.00;99511.94;6275379;22;45070;-45
2023/01/18 08:05:39;;;;;;;;;25.00;19.75;;;;;2.64;66.84;99517.88;6275280;22;45127;-44
2023/01/18 08:08:07;;;;;;;;;15.00;15.00;;;;;2.71;66.77;99526.94;6275231;22;45500;-45
2023/01/18 08:10:33;;;;;;;;;22.25;17.25;;;;;2.75;66.81;99522.25;6274914;22;45345;-44
2023/01/18 08:12:58;;;;;;;;;18.75;17.50;;;;;2.78;66.51;99524.59;6274932;22;45442;-45
2023/01/18 08:15:23;;;;;;;;;21.75;17.50;;;;;2.65;66.98;99509.03;6275245;22;45444;-47
2023/01/18 08:17:50;;;;;;;;;20.50;17.00;;;;;2.72;66.41;99518.06;6274705;22;45293;-47
2023/01/18 08:20:15;;;;;;;;;25.25;20.75;;;;;2.82;66.84;99540.94;6275118;22;46207;-47
2023/01/18 08:22:40;;;;;;;;;25.75;20.25;;;;;2.86;66.93;99542.34;6275130;22;45142;-48
2023/01/18 08:25:06;;;;;;;;;21.00;19.00;;;;;2.86;66.57;99548.44;6275067;22;45166;-46
2023/01/18 08:27:31;;;;;;;;;29.75;17.25;;;;;2.83;66.52;99537.38;6275318;22;45390;-44
2023/01/18 08:29:57;;;;;;;;;29.50;18.50;;;;;2.91;66.53;99554.19;6274896;22;50879;-46
2023/01/18 08:32:23;;;;;;;;;24.50;19.50;;;;;2.95;66.83;99549.47;6274674;22;45100;-44
2023/01/18 08:34:48;;;;;;;;;25.75;23.50;;;;;2.98;67.08;99559.75;6275056;22;45261;-47
2023/01/18 08:37:13;;;;;;;;;28.50;21.50;;;;;3.00;66.44;99569.16;6273975;22;45373;-43
2023/01/18 08:39:39;;;;;;;;;26.25;16.00;;;;;2.95;66.46;99565.22;6272075;22;45526;-44
2023/01/18 08:42:04;;;;;;;;;26.75;22.25;;;;;3.03;67.05;99572.50;6271990;22;45337;-44
2023/01/18 08:44:30;;;;;;;;;26.25;25.00;;;;;3.06;66.90;99583.56;6272023;22;45317;-45
2023/01/18 08:46:55;;;;;;;;;35.25;27.25;;;;;3.07;66.83;99576.53;6272702;22;45321;-46
2023/01/18 08:49:20;;;;;;;;;27.25;25.75;;;;;3.08;66.66;99579.03;6272259;22;45473;-45
2023/01/18 08:51:46;;;;;;;;;26.50;22.00;;;;;3.09;66.72;99582.50;6272048;22;45350;-45
2023/01/18 08:54:11;;;;;;;;;54.50;47.75;;;;;3.11;66.71;99589.28;6272096;22;45327;-45
2023/01/18 08:56:36;;;;;;;;;34.75;25.25;;;;;3.12;65.92;99588.34;6272534;22;45385;-45
2023/01/18 08:59:02;;;;;;;;;41.00;26.50;;;;;3.11;65.92;99584.03;6272282;22;46212;-46
2023/01/18 09:01:28;;;;;;;;;37.25;21.75;;;;;3.08;66.40;99581.69;6272462;22;45232;-43
2023/01/18 09:03:56;;;;;;;;;32.50;21.50;;;;;3.16;66.45;99597.63;6272087;22;45297;-44
2023/01/18 09:06:22;;;;;;;;;35.00;28.50;;;;;3.11;66.02;99589.28;6272075;22;45190;-43
2023/01/18 09:08:48;;;;;;;;;26.75;22.25;;;;;3.21;66.35;99597.25;6271622;22;45421;-44
2023/01/18 09:11:14;;;;;;;;;24.25;19.00;;;;;3.24;66.36;99612.75;6271971;22;45393;-44
2023/01/18 09:13:40;;;;;;;;;27.25;26.75;;;;;3.24;65.37;99621.50;6273003;22;45317;-45
2023/01/18 09:16:08;;;;;;;;;37.00;25.50;;;;;3.26;65.35;99623.97;6272832;22;45449;-44
2023/01/18 09:18:33;;;;;;;;;25.00;21.00;;;;;3.34;65.81;99636.50;6272131;22;46061;-44
2023/01/18 09:21:05;;;;;;;;;33.50;25.75;;;;;3.42;66.58;99639.31;6272046;22;45341;-44
2023/01/18 09:23:30;;;;;;;;;28.75;20.50;;;;;3.49;65.42;99630.75;6272161;22;45393;-44
2023/01/18 09:26:04;;;;;;;;;33.25;24.25;;;;;3.55;64.75;99618.91;6272164;22;45523;-44
2023/01/18 09:28:29;;;;;;;;;29.75;25.50;;;;;3.83;65.39;99634.97;6271783;22;47254;-45
2023/01/18 09:30:59;;;;;;;;;33.25;22.75;;;;;4.26;64.91;99642.66;6271439;22;45444;-44
2023/01/18 09:33:24;;;;;;;;;21.50;19.75;;;;;6.61;62.10;99640.44;6272085;22;45309;-44
2023/01/18 09:35:49;;;;;;;;;26.75;22.25;;;;;8.67;55.62;99661.97;6271738;22;45285;-44
2023/01/18 09:38:15;;;;;;;;;29.75;23.25;;;;;10.19;53.27;99642.91;6271542;22;45779;-43
2023/01/18 09:40:43;;;;;;;;;36.25;22.25;;;;;11.43;51.48;99648.22;6271658;22;45352;-46
2023/01/18 09:43:30;;;;;;;;;51.50;40.25;;;;;12.57;47.22;99653.41;6273407;22;45254;-46
2023/01/18 09:45:55;;;;;;;;;34.50;21.75;;;;;13.46;44.52;99654.81;6273799;22;45391;-44
2023/01/18 09:48:36;;;;;;;;;28.25;21.50;;;;;14.32;42.98;99649.25;6273917;22;45386;-45
2023/01/18 09:51:08;;;;;;;;;25.50;22.00;;;;;15.25;41.27;99652.28;6272414;22;45304;-49
2023/01/18 09:53:50;;;;;;;;;23.50;21.00;;;;;15.96;39.97;99657.91;6273438;22;45229;-45
2023/01/18 09:56:26;;;;;;;;;25.33;20.33;;;;;16.70;36.92;99659.38;6273499;22;45294;-45
2023/01/18 09:58:54;;;;;;;;;21.67;16.33;;;;;17.26;36.83;99673.97;6273252;22;47026;-47
2023/01/18 10:01:28;;;;;;;;;29.33;22.67;;;;;17.77;35.20;99656.06;6273875;22;45370;-49
2023/01/18 10:03:55;;;;;;;;;25.00;19.00;;;;;18.34;36.01;99662.16;6274506;22;45334;-44
2023/01/18 10:06:44;;;;;;;;;25.33;21.00;;;;;18.71;35.07;99665.69;6275019;22;45343;-44
2023/01/18 10:09:18;;;;;;;;;20.00;17.67;;;;;19.11;33.30;99649.78;6251503;22;45590;-44
2023/01/18 10:11:58;;;;;;;;;21.33;19.00;;;;;19.61;33.16;99671.06;6274112;22;45333;-45
2023/01/18 10:14:44;;;;;;;;;25.33;16.67;;;;;19.97;31.56;99673.78;6275402;22;45371;-44
2023/01/18 10:17:22;;;;;;;;;17.33;17.00;;;;;20.10;33.36;99679.81;6275430;22;45333;-46
2023/01/18 10:19:48;;;;;;;;;16.00;15.67;;;;;20.42;31.09;99676.72;6275265;22;45249;-45
2023/01/18 10:22:17;;;;;;;;;22.33;16.67;;;;;20.64;30.13;99682.34;6275067;22;45386;-44
2023/01/18 10:24:58;;;;;;;;;14.00;12.33;;;;;20.74;29.99;99673.66;6273935;22;45376;-45
2023/01/18 10:27:30;;;;;;;;;16.00;12.67;;;;;20.78;31.20;99680.22;6275486;22;45560;-46
2023/01/18 10:30:05;;;;;;;;;18.00;14.67;;;;;21.08;28.97;99680.81;6247297;22;46243;-48
2023/01/18 10:32:35;;;;;;;;;11.67;11.67;;;;;21.26;29.63;99681.66;6274426;22;45329;-47
2023/01/18 10:35:13;;;;;;;;;18.33;15.00;;;;;21.23;29.40;99679.44;6274872;22;45655;-45
2023/01/18 10:37:44;;;;;;;;;12.00;12.00;;;;;21.14;29.17;99682.53;6275843;22;45300;-45
2023/01/18 10:40:12;;;;;;;;;11.67;9.67;;;;;21.22;28.99;99685.91;6274248;22;47056;-47
2023/01/18 10:42:47;;;;;;;;;12.67;11.00;;;;;20.37;29.30;99684.72;6273538;22;45212;-46
2023/01/18 10:45:16;;;;;;;;;10.33;10.00;;;;;19.92;29.85;99679.91;6274855;22;45321;-47
2023/01/18 10:47:43;;;;;;;;;16.00;12.33;;;;;20.18;30.02;99686.72;6274062;22;45198;-46
2023/01/18 10:50:17;;;;;;;;;18.00;11.33;;;;;20.03;31.86;99681.78;6274557;22;46366;-45
2023/01/18 10:52:43;;;;;;;;;12.00;11.67;;;;;19.68;31.18;99682.59;6274604;22;45342;-45
2023/01/18 10:55:14;;;;;;;;;15.67;14.00;;;;;18.32;31.43;99686.56;6274700;22;45113;-45
2023/01/18 10:57:48;;;;;;;;;13.67;11.00;;;;;17.10;32.86;99693.28;6247951;22;45256;-45
2023/01/18 11:00:29;;;;;;;;;15.33;9.33;;;;;16.45;35.84;99698.69;6274772;22;46113;-46
2023/01/18 11:02:57;;;;;;;;;10.67;10.67;;;;;16.82;34.06;99699.03;6273672;22;45317;-45
2023/01/18 11:05:31;;;;;;;;;13.00;9.00;;;;;17.96;34.20;99690.06;6275427;22;45272;-45
2023/01/18 11:08:30;;;;;;;;;13.00;9.33;;;;;17.48;34.06;99692.44;6275062;22;45329;-47
2023/01/18 11:11:14;;;;;;;;;12.00;7.67;;;;;17.04;34.34;99695.00;6272980;22;46072;-44
2023/01/18 11:13:42;;;;;;;;;10.33;9.00;;;;;17.75;34.94;99682.38;6274721;22;45271;-44
2023/01/18 11:16:22;;;;;;;;;10.33;7.00;;;;;18.12;34.71;99675.22;6275076;22;45305;-46
2023/01/18 11:19:03;;;;;;;;;9.33;6.00;;;;;18.38;32.41;99671.41;6276062;22;45345;-44
2023/01/18 11:21:39;;;;;;;;;8.33;8.33;;;;;18.58;32.06;99673.88;6275759;22;45646;-49
2023/01/18 11:24:15;;;;;;;;;12.33;9.67;;;;;18.47;32.27;99669.25;6275445;22;45385;-44
2023/01/18 11:26:56;;;;;;;;;5.67;5.67;;;;;18.12;33.54;99673.34;6274952;22;45425;-46
2023/01/18 11:29:25;;;;;;;;;6.00;6.00;;;;;17.67;33.55;99665.41;6275232;22;45339;-44
2023/01/18 11:31:53;;;;;;;;;8.67;6.33;;;;;17.15;34.41;99670.13;6275251;22;46727;-48
2023/01/18 11:34:34;;;;;;;;;11.33;6.00;;;;;16.54;35.02;99665.19;6274558;22;45357;-47
2023/01/18 11:37:01;;;;;;;;;6.33;6.00;;;;;16.09;34.84;99675.81;6275110;22;45341;-44
2023/01/18 11:39:36;;;;;;;;;6.67;6.67;;;;;15.69;36.29;99672.38;6274898;22;45395;-45
2023/01/18 11:42:10;;;;;;;;;7.00;5.67;;;;;15.49;37.14;99666.94;6274343;22;46316;-44
2023/01/18 11:44:42;;;;;;;;;5.00;5.00;;;;;15.45;37.07;99663.84;6275288;22;45415;-44
2023/01/18 11:47:19;;;;;;;;;8.33;5.67;;;;;15.44;37.24;99661.38;6274853;22;45457;-44
2023/01/18 11:50:27;;;;;;;;;8.00;5.67;;;;;15.41;37.36;99664.47;6275363;22;45352;-44
2023/01/18 11:52:59;;;;;;;;;6.00;5.33;;;;;15.50;37.02;99657.06;6249539;22;46206;-43
2023/01/18 11:55:33;;;;;;;;;6.33;5.00;;;;;15.58;37.46;99655.00;6274608;22;45171;-44
2023/01/18 11:57:59;;;;;;;;;4.00;4.00;;;;;15.50;36.90;99668.59;6274652;22;45194;-46
2023/01/18 12:00:29;;;;;;;;;7.33;3.67;;;;;15.48;37.78;99666.13;6275060;22;45333;-44
2023/01/18 12:03:21;;;;;;;;;6.67;4.00;;;;;15.63;37.94;99671.31;6273315;22;45401;-44
2023/01/18 12:05:53;;;;;;;;;8.33;4.00;;;;;15.82;36.45;99671.53;6274720;22;45408;-44
2023/01/18 12:08:37;;;;;;;;;5.33;4.33;;;;;16.02;36.70;99656.25;6274470;22;45339;-45